Linden Pride — H3VP — position and weather

sailwx.info

Track history (hours):
 
Tides and Currents Weather Stations Pressure Air Temp Water Temp Dewpoint Dewpoint Depression Visibility Wind Speed Wind Dir Waves Ship Positions

Linden Pride

Last reported at 2015-Mar-16 08:08 UTC. Time now 2015-Mar-28 00:38 UTC.
Position N 34°50' E 139°37'.
Warning: this ship's position is 11 days out of date.

Length 230 m; beam 36.6 m.

Type: Tanker. MMSI: 356677000.

Date/timePositionNaut miles runAvg speedWind from/ knotsBaromVisibWave heightAir tempDewpointWater temp
2015-Mar-16 08:08N 34°50' E 139°37'1018.1
2015-Mar-16 07:33N 34°59' E 139°42'1514.7
2015-Mar-16 06:33N 35°14' E 139°46'1211.9
2015-Mar-16 05:33N 35°25' E 139°44'1413.9
2015-Mar-16 04:33N 35°31' E 139°60'0 0.0
2015-Mar-15 00:33N 35°31' E 139°60'4 1.0
2015-Mar-14 21:08N 35°33' E 139°56'0 0.0
2015-Mar-14 20:26N 35°33' E 139°56'0 0.0
2015-Mar-14 16:20N 35°33' E 139°56'0 0.0
2015-Mar-14 15:20N 35°33' E 139°56'0 0.0
2015-Mar-14 13:23N 35°33' E 139°56'0 0.0
2015-Mar-14 08:20N 35°33' E 139°56'0 0.0
2015-Mar-14 07:26N 35°33' E 139°56'1 0.7
2015-Mar-14 05:33N 35°32' E 139°55'7 7.3
2015-Mar-14 04:33N 35°31' E 139°46'1 0.0
2015-Mar-13 01:14N 35°31' E 139°46'2 2.3
2015-Mar-13 00:33N 35°30' E 139°47'6 6.3
2015-Mar-12 23:33N 35°24' E 139°46'1010.4
2015-Mar-12 22:33N 35°14' E 139°47'9 9.4
2015-Mar-12 21:33N 35°04' E 139°45'10 9.9
2015-Mar-12 20:33N 34°55' E 139°40'13 0.7
2015-Mar-12 01:28N 34°45' E 139°50'  
Track history (hours):
 
Tides and Currents Weather Stations Pressure Air Temp Water Temp Dewpoint Dewpoint Depression Visibility Wind Speed Wind Dir Waves Ship Positions

Linden Pride

Last reported at 2015-Mar-16 08:08 UTC. Time now 2015-Mar-28 00:38 UTC.
Position N 34°50' E 139°37'.
Warning: this ship's position is 11 days out of date.

Length 230 m; beam 36.6 m.

Type: Tanker. MMSI: 356677000.

Date/timePositionNaut miles runAvg speedWind from/ knotsBaromVisibWave heightAir tempDewpointWater temp
2015-Mar-16 08:08N 34°50' E 139°37'1018.1
2015-Mar-16 07:33N 34°59' E 139°42'1514.7
2015-Mar-16 06:33N 35°14' E 139°46'1211.9
2015-Mar-16 05:33N 35°25' E 139°44'1413.9
2015-Mar-16 04:33N 35°31' E 139°60'0 0.0
2015-Mar-15 00:33N 35°31' E 139°60'4 1.0
2015-Mar-14 21:08N 35°33' E 139°56'0 0.0
2015-Mar-14 20:26N 35°33' E 139°56'0 0.0
2015-Mar-14 16:20N 35°33' E 139°56'0 0.0
2015-Mar-14 15:20N 35°33' E 139°56'0 0.0
2015-Mar-14 13:23N 35°33' E 139°56'0 0.0
2015-Mar-14 08:20N 35°33' E 139°56'0 0.0
2015-Mar-14 07:26N 35°33' E 139°56'1 0.7
2015-Mar-14 05:33N 35°32' E 139°55'7 7.3
2015-Mar-14 04:33N 35°31' E 139°46'1 0.0
2015-Mar-13 01:14N 35°31' E 139°46'2 2.3
2015-Mar-13 00:33N 35°30' E 139°47'6 6.3
2015-Mar-12 23:33N 35°24' E 139°46'1010.4
2015-Mar-12 22:33N 35°14' E 139°47'9 9.4
2015-Mar-12 21:33N 35°04' E 139°45'10 9.9
2015-Mar-12 20:33N 34°55' E 139°40'13 0.7
2015-Mar-12 01:28N 34°45' E 139°50'  

Dump ship's entire track history